Time;durP1;ratioP1;P1;durP2;ratioP2;P2;SDS_P1;SDS_P2;PMS_P1;PMS_P2;Temp;Humidity;BMP_temperature;BMP_pressure;BME280_temperature;BME280_humidity;BME280_pressure;Samples;Min_cycle;Max_cycle;Signal;HPM_P1;HPM_P2
2021/12/09 05:00:23;;;;;;;11.73;6.10;;;4.40;99.90;;;;;;5980205;23;20473;-70
2021/12/09 05:03:02;;;;;;;10.90;6.23;;;4.50;99.90;;;;;;4975651;28;20443;-72
2021/12/09 05:05:32;;;;;;;15.57;7.67;;;4.50;99.90;;;;;;4975694;28;20443;-71
2021/12/09 05:08:00;;;;;;;14.67;6.53;;;4.50;99.90;;;;;;4976426;28;20502;-71
2021/12/09 05:10:27;;;;;;;12.00;6.27;;;4.50;99.90;;;;;;4975639;28;20521;-71
2021/12/09 05:12:54;;;;;;;16.80;6.73;;;4.50;99.90;;;;;;4976058;28;20457;-71
2021/12/09 05:15:22;;;;;;;16.93;7.23;;;4.60;99.90;;;;;;4975457;28;20450;-71
2021/12/09 05:17:49;;;;;;;10.70;6.30;;;4.60;99.90;;;;;;4975601;28;20483;-72
2021/12/09 05:20:15;;;;;;;13.87;7.43;;;4.70;99.90;;;;;;4975713;28;20455;-73
2021/12/09 05:22:42;;;;;;;10.60;6.33;;;4.60;99.90;;;;;;4983208;28;20451;-72
2021/12/09 05:25:09;;;;;;;13.47;6.80;;;4.60;99.90;;;;;;5001857;28;20443;-72
2021/12/09 05:27:37;;;;;;;12.63;6.07;;;4.60;99.90;;;;;;4980234;28;20451;-73
2021/12/09 05:30:08;;;;;;;10.17;6.30;;;4.70;99.90;;;;;;4980895;28;20459;-71
2021/12/09 05:32:35;;;;;;;11.47;6.27;;;4.60;99.90;;;;;;4979897;28;20443;-71
2021/12/09 05:35:03;;;;;;;16.60;6.80;;;4.60;99.90;;;;;;4979811;28;20542;-73
2021/12/09 05:37:30;;;;;;;11.80;6.33;;;4.70;99.90;;;;;;4979618;28;20478;-72
2021/12/09 05:39:58;;;;;;;12.10;6.20;;;4.70;99.90;;;;;;4979730;28;20459;-71
2021/12/09 05:42:26;;;;;;;11.50;5.93;;;4.70;99.90;;;;;;4979360;28;20479;-71
2021/12/09 05:44:53;;;;;;;9.67;5.60;;;4.70;99.90;;;;;;4979380;28;20446;-71
2021/12/09 05:47:20;;;;;;;11.50;5.70;;;4.70;99.90;;;;;;4979112;28;20454;-71
2021/12/09 05:49:50;;;;;;;11.00;5.83;;;4.70;99.90;;;;;;4978990;28;20801;-71
2021/12/09 05:52:17;;;;;;;10.63;6.03;;;4.70;99.90;;;;;;4978491;28;20538;-71
2021/12/09 05:54:45;;;;;;;17.03;6.73;;;4.70;99.90;;;;;;4978686;28;20471;-72
2021/12/09 05:57:12;;;;;;;10.30;6.03;;;4.70;99.90;;;;;;4979010;28;20483;-72
2021/12/09 05:59:41;;;;;;;13.53;7.20;;;4.60;99.90;;;;;;4980711;28;20455;-71
2021/12/09 06:02:08;;;;;;;15.40;7.17;;;4.70;99.90;;;;;;4978084;28;20482;-72
2021/12/09 06:04:35;;;;;;;8.67;5.43;;;4.90;99.90;;;;;;4978252;28;20968;-72
2021/12/09 06:07:04;;;;;;;10.43;5.40;;;5.20;99.90;;;;;;4978463;28;20439;-72
2021/12/09 06:09:31;;;;;;;6.37;5.30;;;5.30;99.90;;;;;;4978330;28;20462;-72
2021/12/09 06:11:58;;;;;;;9.57;4.83;;;5.50;99.90;;;;;;4978141;28;20475;-71
2021/12/09 06:14:25;;;;;;;8.77;5.27;;;5.60;99.90;;;;;;4978266;28;20455;-72
2021/12/09 06:16:51;;;;;;;7.67;4.10;;;5.70;99.90;;;;;;4978216;28;20459;-73
2021/12/09 06:19:18;;;;;;;9.13;5.07;;;5.80;99.90;;;;;;4978211;28;20824;-72
2021/12/09 06:21:45;;;;;;;11.40;4.60;;;5.80;99.90;;;;;;4978076;28;20474;-72
2021/12/09 06:24:13;;;;;;;6.77;4.13;;;5.80;99.90;;;;;;4978045;28;20455;-72
2021/12/09 06:26:40;;;;;;;9.47;4.20;;;5.80;99.90;;;;;;4978245;28;20462;-71
2021/12/09 06:29:07;;;;;;;6.80;4.40;;;5.80;99.90;;;;;;4978349;28;20454;-71
2021/12/09 06:31:34;;;;;;;7.63;4.53;;;5.80;99.90;;;;;;4977964;28;20499;-71
2021/12/09 06:34:01;;;;;;;6.97;4.13;;;5.80;99.90;;;;;;4977444;28;20459;-71
2021/12/09 06:36:28;;;;;;;10.57;4.80;;;5.70;99.90;;;;;;4977755;28;20458;-71
2021/12/09 06:38:55;;;;;;;7.17;4.77;;;5.60;99.90;;;;;;4977814;28;20479;-71
2021/12/09 06:41:23;;;;;;;7.47;4.00;;;5.50;99.90;;;;;;4977347;28;20879;-70
2021/12/09 06:43:50;;;;;;;15.03;4.70;;;5.40;99.90;;;;;;4977377;28;20906;-70
2021/12/09 06:46:16;;;;;;;7.60;4.60;;;5.30;99.90;;;;;;4977762;28;20455;-70
2021/12/09 06:48:43;;;;;;;7.20;4.33;;;5.20;99.90;;;;;;4977928;28;20455;-71
2021/12/09 06:51:10;;;;;;;8.97;4.60;;;5.20;99.90;;;;;;4977874;28;20482;-72
2021/12/09 06:53:38;;;;;;;6.83;4.20;;;5.10;99.90;;;;;;4978074;28;20462;-71
2021/12/09 06:56:06;;;;;;;5.03;4.03;;;5.00;99.90;;;;;;4978239;28;20459;-71
2021/12/09 06:58:34;;;;;;;8.30;5.20;;;5.00;99.90;;;;;;4977999;28;20479;-71
2021/12/09 07:01:02;;;;;;;8.53;4.70;;;4.90;99.90;;;;;;4977414;28;20856;-71
2021/12/09 07:03:30;;;;;;;8.40;4.50;;;4.80;99.90;;;;;;4977774;28;20463;-71
2021/12/09 07:06:01;;;;;;;9.93;5.03;;;4.80;99.90;;;;;;4977824;28;20455;-71
2021/12/09 07:08:28;;;;;;;5.37;4.13;;;4.80;99.90;;;;;;4979672;28;20436;-70
2021/12/09 07:10:54;;;;;;;12.63;5.67;;;4.80;99.90;;;;;;4981210;28;20812;-71
2021/12/09 07:13:22;;;;;;;12.43;5.10;;;4.70;99.90;;;;;;4979754;28;20459;-70
2021/12/09 07:15:50;;;;;;;5.47;4.40;;;4.70;99.90;;;;;;4978817;28;20455;-70
2021/12/09 07:18:20;;;;;;;8.80;5.00;;;4.70;99.90;;;;;;4977394;28;20483;-71
2021/12/09 07:20:47;;;;;;;8.40;5.20;;;4.70;99.90;;;;;;4977224;28;20475;-70
2021/12/09 07:23:15;;;;;;;4.93;4.33;;;4.70;99.90;;;;;;4977209;28;20455;-72
2021/12/09 07:25:42;;;;;;;9.53;4.60;;;4.60;99.90;;;;;;4976926;28;20462;-71
2021/12/09 07:28:08;;;;;;;5.17;4.03;;;4.60;99.90;;;;;;4977246;28;20455;-71
2021/12/09 07:30:35;;;;;;;9.50;4.77;;;4.60;99.90;;;;;;4979439;28;20479;-70
2021/12/09 07:33:03;;;;;;;6.70;4.57;;;4.70;99.90;;;;;;4977724;28;20459;-71
2021/12/09 07:35:31;;;;;;;8.70;6.43;;;4.70;99.90;;;;;;4977114;28;20455;-70
2021/12/09 07:37:58;;;;;;;9.60;4.53;;;4.70;99.90;;;;;;4976746;28;20510;-71
2021/12/09 07:40:25;;;;;;;9.80;4.80;;;4.80;99.90;;;;;;4976604;28;20950;-70
2021/12/09 07:42:54;;;;;;;11.67;4.60;;;4.80;99.90;;;;;;4976429;28;20833;-71
2021/12/09 07:45:21;;;;;;;9.23;4.80;;;4.80;99.90;;;;;;4976117;28;20942;-71
2021/12/09 07:47:49;;;;;;;9.30;5.03;;;4.80;99.90;;;;;;4975758;28;20454;-71
2021/12/09 07:50:19;;;;;;;10.10;5.77;;;4.80;99.90;;;;;;4976546;28;20869;-70
2021/12/09 07:52:49;;;;;;;6.50;5.33;;;4.80;99.90;;;;;;4976450;28;20526;-71
2021/12/09 07:55:17;;;;;;;8.97;6.03;;;4.80;99.90;;;;;;4976646;28;20479;-70
2021/12/09 07:57:44;;;;;;;8.47;6.20;;;4.80;99.90;;;;;;4976147;28;21016;-70
2021/12/09 08:00:14;;;;;;;8.00;5.63;;;4.80;99.90;;;;;;4976456;28;20458;-70
2021/12/09 08:02:41;;;;;;;13.47;6.07;;;4.90;99.90;;;;;;4976382;28;20843;-70
2021/12/09 08:05:09;;;;;;;8.87;6.27;;;4.90;99.90;;;;;;4976379;28;20505;-70
2021/12/09 08:07:37;;;;;;;9.10;5.97;;;4.90;99.90;;;;;;4976555;28;20454;-70
2021/12/09 08:10:05;;;;;;;12.67;6.10;;;4.90;99.90;;;;;;4977178;28;20459;-71
2021/12/09 08:12:32;;;;;;;7.80;6.10;;;4.90;99.90;;;;;;4975840;28;20483;-70
2021/12/09 08:14:58;;;;;;;8.17;5.60;;;4.90;99.90;;;;;;4976362;28;20466;-70
2021/12/09 08:17:44;;;;;;;10.30;7.00;;;4.90;99.90;;;;;;4975686;28;20954;-71
2021/12/09 08:20:13;;;;;;;8.17;6.57;;;5.00;99.90;;;;;;4975821;28;20447;-70
2021/12/09 08:22:42;;;;;;;11.13;6.40;;;5.00;99.90;;;;;;4976264;28;20475;-71
2021/12/09 08:25:13;;;;;;;11.10;6.13;;;5.10;99.90;;;;;;4976019;28;20462;-71
2021/12/09 08:27:42;;;;;;;9.07;5.77;;;5.10;99.90;;;;;;4975619;28;20849;-70
2021/12/09 08:30:11;;;;;;;8.87;7.27;;;5.20;99.90;;;;;;4975819;28;20466;-70
2021/12/09 08:32:38;;;;;;;7.87;5.90;;;5.20;99.90;;;;;;4976663;28;20459;-70
2021/12/09 08:35:06;;;;;;;14.33;7.43;;;5.30;99.90;;;;;;4975528;28;20961;-71
2021/12/09 08:37:33;;;;;;;10.57;6.40;;;5.20;99.90;;;;;;4975819;28;20450;-71
2021/12/09 08:40:01;;;;;;;9.63;7.00;;;5.30;99.90;;;;;;4976070;28;20466;-70
2021/12/09 08:42:27;;;;;;;8.03;6.27;;;5.30;99.90;;;;;;4975523;28;20810;-70
2021/12/09 08:44:55;;;;;;;6.57;5.67;;;5.40;99.90;;;;;;4975556;28;20459;-71
2021/12/09 08:47:22;;;;;;;7.57;5.43;;;5.50;99.90;;;;;;4975114;28;20467;-71
2021/12/09 08:49:49;;;;;;;9.80;6.07;;;5.50;99.90;;;;;;4975287;28;20451;-70
2021/12/09 08:52:15;;;;;;;10.30;6.63;;;5.50;99.90;;;;;;4975527;28;20479;-71
2021/12/09 08:54:42;;;;;;;6.63;5.47;;;5.60;99.90;;;;;;4975303;28;20509;-70
2021/12/09 08:57:11;;;;;;;6.20;5.10;;;5.60;99.90;;;;;;4985776;28;20549;-71
2021/12/09 08:59:38;;;;;;;12.00;6.40;;;5.60;99.90;;;;;;4987398;28;20485;-71
2021/12/09 09:02:06;;;;;;;5.73;5.23;;;5.70;99.90;;;;;;4987940;28;20486;-69
2021/12/09 09:04:33;;;;;;;5.60;5.10;;;5.80;99.90;;;;;;4975258;28;20943;-68
2021/12/09 09:07:01;;;;;;;7.60;5.10;;;6.10;99.90;;;;;;4974904;28;20455;-69
2021/12/09 09:09:33;;;;;;;4.73;4.33;;;6.30;99.90;;;;;;4975400;28;20451;-68
2021/12/09 09:12:01;;;;;;;5.43;4.90;;;6.40;99.90;;;;;;4975094;28;20570;-68
2021/12/09 09:14:29;;;;;;;6.73;5.00;;;6.70;99.90;;;;;;4975246;28;20459;-69
2021/12/09 09:16:57;;;;;;;7.07;4.73;;;6.80;99.90;;;;;;4975112;28;20506;-70
2021/12/09 09:19:24;;;;;;;6.53;5.00;;;7.10;99.90;;;;;;4974767;28;20490;-70
2021/12/09 09:21:51;;;;;;;7.67;5.20;;;7.20;99.90;;;;;;4975120;28;20486;-69
2021/12/09 09:24:19;;;;;;;5.23;4.53;;;7.30;99.90;;;;;;4974949;28;20456;-72
2021/12/09 09:26:46;;;;;;;8.63;5.53;;;7.40;99.90;;;;;;4974843;28;20470;-73
2021/12/09 09:29:13;;;;;;;8.03;5.93;;;7.50;99.90;;;;;;4975145;28;20451;-72
2021/12/09 09:31:42;;;;;;;7.43;6.10;;;7.50;99.90;;;;;;4974942;28;20486;-72
2021/12/09 09:34:11;;;;;;;9.17;6.27;;;7.50;99.90;;;;;;4975414;28;20451;-72
2021/12/09 09:36:43;;;;;;;6.13;5.60;;;7.40;99.90;;;;;;4975028;28;20468;-72
2021/12/09 09:39:17;;;;;;;12.83;7.30;;;7.30;99.90;;;;;;4974897;28;20486;-72
2021/12/09 09:41:45;;;;;;;8.43;6.50;;;7.30;99.90;;;;;;4974911;28;20487;-72
2021/12/09 09:44:15;;;;;;;6.87;5.97;;;7.20;99.90;;;;;;4974931;28;20510;-72
2021/12/09 09:46:43;;;;;;;8.00;5.67;;;7.20;99.90;;;;;;4974637;28;20550;-72
2021/12/09 09:49:12;;;;;;;7.93;6.17;;;7.20;99.90;;;;;;4975040;28;20451;-73
2021/12/09 09:51:39;;;;;;;12.43;6.60;;;7.10;99.90;;;;;;4974965;28;20883;-72
2021/12/09 09:54:08;;;;;;;7.47;6.60;;;7.10;99.90;;;;;;4974748;28;20455;-72
2021/12/09 09:56:40;;;;;;;8.20;6.40;;;7.10;99.90;;;;;;4974727;28;20535;-72
2021/12/09 09:59:08;;;;;;;8.30;7.50;;;7.10;99.90;;;;;;4974486;28;20981;-72
2021/12/09 10:01:38;;;;;;;10.60;7.83;;;7.10;99.90;;;;;;4974620;28;20569;-73
2021/12/09 10:04:13;;;;;;;9.43;7.37;;;7.10;99.90;;;;;;4974837;28;20459;-72
2021/12/09 10:06:42;;;;;;;8.47;7.13;;;7.00;99.90;;;;;;4974623;28;20925;-73
2021/12/09 10:09:11;;;;;;;8.97;8.17;;;7.00;99.90;;;;;;4974601;28;20946;-72
2021/12/09 10:11:39;;;;;;;9.67;8.50;;;6.90;99.90;;;;;;4978178;28;20509;-72
2021/12/09 10:14:13;;;;;;;12.00;9.03;;;6.90;99.90;;;;;;4979096;28;20454;-72
2021/12/09 10:16:42;;;;;;;13.20;9.80;;;6.80;99.90;;;;;;4978110;28;20470;-72
2021/12/09 10:19:19;;;;;;;15.20;10.33;;;6.80;99.90;;;;;;4978128;28;20514;-72
2021/12/09 10:21:47;;;;;;;13.80;9.93;;;6.90;99.90;;;;;;4977826;28;20478;-72
2021/12/09 10:24:14;;;;;;;10.70;9.60;;;6.90;99.90;;;;;;4977984;28;20455;-72
2021/12/09 10:26:42;;;;;;;14.33;9.67;;;6.90;99.90;;;;;;4978434;28;20491;-72
2021/12/09 10:29:16;;;;;;;14.63;9.13;;;6.90;99.90;;;;;;4978066;28;20457;-72
2021/12/09 10:31:46;;;;;;;14.33;9.80;;;6.90;99.90;;;;;;4978126;28;20481;-72
2021/12/09 10:34:36;;;;;;;11.73;9.87;;;6.90;99.90;;;;;;4980235;28;20439;-73
2021/12/09 10:37:07;;;;;;;11.50;10.30;;;6.90;99.90;;;;;;4978745;28;20461;-73
2021/12/09 10:39:39;;;;;;;11.63;10.53;;;6.90;99.90;;;;;;4978114;28;20824;-73
2021/12/09 10:42:09;;;;;;;15.93;10.83;;;6.90;99.90;;;;;;4978025;28;20494;-73
2021/12/09 10:44:55;;;;;;;15.90;10.20;;;6.90;99.90;;;;;;4977813;28;20462;-73
2021/12/09 10:47:35;;;;;;;16.73;10.33;;;6.80;99.90;;;;;;4978076;28;20443;-73
2021/12/09 10:50:11;;;;;;;15.63;10.10;;;6.90;99.90;;;;;;4977911;28;20448;-72
2021/12/09 10:52:42;;;;;;;12.57;9.70;;;6.90;99.90;;;;;;4977802;28;20439;-73
2021/12/09 10:55:19;;;;;;;15.10;9.60;;;6.90;99.90;;;;;;4977383;28;20494;-71
2021/12/09 10:57:52;;;;;;;13.27;11.40;;;7.00;99.90;;;;;;4977224;28;20439;-74
2021/12/09 11:00:23;;;;;;;12.40;10.20;;;7.00;99.90;;;;;;4977429;28;20467;-71
2021/12/09 11:03:01;;;;;;;11.27;9.53;;;7.10;99.90;;;;;;4977401;28;20444;-73
2021/12/09 11:05:30;;;;;;;13.93;11.37;;;7.20;99.90;;;;;;4977148;28;20446;-73
2021/12/09 11:08:17;;;;;;;14.97;11.63;;;7.20;99.90;;;;;;4977427;28;20828;-74
2021/12/09 11:10:48;;;;;;;15.00;10.50;;;7.30;99.90;;;;;;4977129;28;20478;-73
2021/12/09 11:13:17;;;;;;;13.13;9.33;;;7.50;99.90;;;;;;4977356;28;20439;-74
2021/12/09 11:15:49;;;;;;;13.70;9.70;;;7.70;99.90;;;;;;4977545;28;20455;-73
2021/12/09 11:18:34;;;;;;;12.53;10.00;;;7.80;99.90;;;;;;4979016;28;20538;-74
2021/12/09 11:21:06;;;;;;;12.87;11.57;;;7.90;99.90;;;;;;4978866;28;20475;-73
2021/12/09 11:23:40;;;;;;;10.30;9.43;;;7.90;99.90;;;;;;4976893;28;20926;-74
2021/12/09 11:26:37;;;;;;;10.77;8.97;;;7.90;99.90;;;;;;4978555;28;20453;-73
2021/12/09 11:29:08;;;;;;;13.07;9.63;;;7.90;99.90;;;;;;4976306;28;20451;-74
2021/12/09 11:31:50;;;;;;;14.83;10.73;;;7.50;99.90;;;;;;4977820;28;20561;-73
2021/12/09 11:34:20;;;;;;;11.10;10.00;;;7.50;99.90;;;;;;4978077;28;20439;-73
2021/12/09 11:36:57;;;;;;;14.73;10.70;;;7.60;99.90;;;;;;4978620;28;20459;-73
2021/12/09 11:39:31;;;;;;;15.63;11.63;;;7.50;99.90;;;;;;4977295;28;20474;-73
2021/12/09 11:42:08;;;;;;;19.83;11.97;;;7.40;99.90;;;;;;4978496;28;20500;-73
2021/12/09 11:44:35;;;;;;;14.83;13.20;;;7.40;99.90;;;;;;4977456;28;20439;-73
2021/12/09 11:47:03;;;;;;;13.70;11.67;;;7.30;99.90;;;;;;4976963;28;20829;-73
2021/12/09 11:49:30;;;;;;;15.13;11.87;;;7.30;99.90;;;;;;4977658;28;20451;-73
2021/12/09 11:51:58;;;;;;;17.70;13.87;;;7.30;99.90;;;;;;4980027;28;20479;-73
2021/12/09 11:54:25;;;;;;;15.67;12.43;;;7.30;99.90;;;;;;4980977;28;20978;-73
2021/12/09 12:11:42;;;;;;;13.17;11.10;;;7.30;99.90;;;;;;4977605;28;20543;-73
2021/12/09 12:14:35;;;;;;;11.10;9.10;;;7.10;99.90;;;;;;4976626;28;20898;-73
2021/12/09 12:20:15;;;;;;;11.00;9.20;;;7.30;99.90;;;;;;4973282;28;20470;-73
2021/12/09 12:23:08;;;;;;;10.37;8.80;;;7.20;99.90;;;;;;4976879;28;20439;-73
2021/12/09 12:28:54;;;;;;;9.50;8.53;;;7.30;99.90;;;;;;4977219;28;20446;-72
2021/12/09 12:34:53;;;;;;;11.80;6.53;;;7.20;99.90;;;;;;4959865;28;20542;-73
2021/12/09 12:37:44;;;;;;;7.10;6.33;;;7.30;99.90;;;;;;4977602;28;20510;-73
2021/12/09 12:40:13;;;;;;;9.13;6.10;;;7.30;99.90;;;;;;4976833;28;20464;-72
2021/12/09 12:42:51;;;;;;;10.03;6.03;;;7.30;99.90;;;;;;4976766;28;20948;-73
2021/12/09 12:45:36;;;;;;;9.90;5.50;;;7.40;99.90;;;;;;4976679;28;20443;-72
2021/12/09 12:48:41;;;;;;;10.33;6.10;;;7.50;99.90;;;;;;4978140;28;20898;-71
2021/12/09 12:51:13;;;;;;;9.53;6.13;;;7.50;99.90;;;;;;4976520;28;20478;-71
2021/12/09 12:53:43;;;;;;;6.53;5.67;;;7.30;99.90;;;;;;4976357;28;20444;-72
2021/12/09 12:56:12;;;;;;;13.10;6.33;;;7.20;99.90;;;;;;4976248;28;20439;-71
2021/12/09 12:59:01;;;;;;;7.67;5.50;;;7.10;99.90;;;;;;4976248;28;20554;-71
2021/12/09 13:01:28;;;;;;;8.90;5.60;;;7.00;99.90;;;;;;4974994;28;20487;-72
2021/12/09 13:03:59;;;;;;;7.17;6.17;;;7.00;99.90;;;;;;4975425;28;20462;-73
2021/12/09 13:06:48;;;;;;;12.70;6.47;;;7.00;99.90;;;;;;4975625;28;20443;-71
2021/12/09 13:09:26;;;;;;;10.87;5.17;;;7.00;99.90;;;;;;4977116;28;20907;-71
2021/12/09 13:11:58;;;;;;;13.30;6.27;;;6.90;99.90;;;;;;4976244;28;20474;-71
2021/12/09 13:14:30;;;;;;;9.23;6.17;;;6.80;99.90;;;;;;4975636;28;20471;-73
2021/12/09 13:17:05;;;;;;;7.43;5.13;;;6.60;99.90;;;;;;4975257;28;20439;-71
2021/12/09 13:19:47;;;;;;;9.03;6.23;;;6.60;99.90;;;;;;4975101;28;20467;-72
2021/12/09 13:22:32;;;;;;;13.43;5.90;;;6.40;99.90;;;;;;4975332;28;20537;-72
2021/12/09 13:25:18;;;;;;;9.00;5.40;;;6.30;99.90;;;;;;4975238;28;20447;-72
2021/12/09 13:27:52;;;;;;;9.37;4.77;;;6.30;99.90;;;;;;4975331;28;20534;-68
2021/12/09 13:47:19;;;;;;;8.57;4.43;;;7.60;99.90;;;;;;4979313;28;20459;-72
2021/12/09 13:49:54;;;;;;;11.67;4.80;;;7.50;99.90;;;;;;4978605;28;20969;-72
2021/12/09 13:55:11;;;;;;;8.80;5.27;;;7.10;99.90;;;;;;4979237;28;20418;-72
2021/12/09 13:57:40;;;;;;;7.37;5.93;;;6.90;99.90;;;;;;4978309;28;20956;-72
2021/12/09 14:00:14;;;;;;;10.33;5.43;;;6.70;99.90;;;;;;4978477;28;20481;-73
2021/12/09 14:02:48;;;;;;;9.10;4.90;;;6.50;99.90;;;;;;4978877;28;20439;-72
2021/12/09 14:05:16;;;;;;;13.83;5.70;;;6.50;99.90;;;;;;4978819;28;20438;-73
2021/12/09 14:07:53;;;;;;;9.70;5.30;;;6.40;99.90;;;;;;4978793;28;20455;-73
2021/12/09 14:10:25;;;;;;;10.97;5.40;;;6.40;99.90;;;;;;4978831;28;20463;-72
2021/12/09 14:12:58;;;;;;;7.83;5.63;;;6.30;99.90;;;;;;4978419;28;20799;-72
2021/12/09 14:15:35;;;;;;;8.50;5.30;;;6.30;99.90;;;;;;4978814;28;20434;-70
2021/12/09 14:18:09;;;;;;;13.60;5.27;;;6.30;99.90;;;;;;4978695;28;20442;-71
2021/12/09 14:20:36;;;;;;;8.67;6.73;;;6.20;99.90;;;;;;4978053;28;20489;-73
2021/12/09 14:23:05;;;;;;;8.40;5.17;;;6.20;99.90;;;;;;4978439;28;20482;-73
2021/12/09 14:25:34;;;;;;;12.93;5.50;;;6.10;99.90;;;;;;4978478;28;20451;-73
2021/12/09 14:28:05;;;;;;;13.40;5.13;;;6.10;99.90;;;;;;4978289;28;20876;-73
2021/12/09 14:30:32;;;;;;;18.70;5.93;;;6.10;99.90;;;;;;4977904;28;20960;-73
2021/12/09 14:33:00;;;;;;;11.63;5.57;;;6.10;99.90;;;;;;4978214;28;20459;-74
2021/12/09 14:35:31;;;;;;;10.37;4.80;;;6.20;99.90;;;;;;4978346;28;20455;-73
2021/12/09 14:37:59;;;;;;;8.43;5.20;;;6.30;99.90;;;;;;4978185;28;20495;-73
2021/12/09 14:40:32;;;;;;;9.33;4.97;;;6.40;99.90;;;;;;4978157;28;20483;-73
2021/12/09 14:43:02;;;;;;;13.23;5.43;;;6.40;99.90;;;;;;4978387;28;20446;-74
2021/12/09 14:45:30;;;;;;;11.50;5.50;;;6.50;99.90;;;;;;4978701;28;20459;-72
2021/12/09 14:48:01;;;;;;;6.77;4.43;;;6.50;99.90;;;;;;4978782;28;20825;-73
2021/12/09 14:50:36;;;;;;;12.47;4.70;;;6.50;99.90;;;;;;4978516;28;20451;-73
2021/12/09 14:53:04;;;;;;;11.77;5.70;;;6.50;99.90;;;;;;4978388;28;20450;-74
2021/12/09 14:55:31;;;;;;;8.27;5.77;;;6.50;99.90;;;;;;4977434;28;20459;-75
2021/12/09 14:58:04;;;;;;;12.90;6.00;;;6.40;99.90;;;;;;4977755;28;20454;-73
2021/12/09 15:00:36;;;;;;;7.13;5.20;;;6.40;99.90;;;;;;4977514;28;20850;-73
2021/12/09 15:03:03;;;;;;;11.53;5.73;;;6.40;99.90;;;;;;4977969;28;20446;-73
2021/12/09 15:05:31;;;;;;;9.10;5.10;;;6.40;99.90;;;;;;4979936;28;20478;-73
2021/12/09 15:08:04;;;;;;;11.70;5.00;;;6.30;99.90;;;;;;4980463;28;20887;-73
2021/12/09 15:10:33;;;;;;;6.80;4.33;;;6.30;99.90;;;;;;4978477;28;20440;-73
2021/12/09 15:13:02;;;;;;;9.23;5.70;;;6.30;99.90;;;;;;4978971;28;20463;-74
2021/12/09 15:15:31;;;;;;;13.30;6.40;;;6.30;99.90;;;;;;4977719;28;20459;-73
2021/12/09 15:17:59;;;;;;;7.97;5.20;;;6.20;99.90;;;;;;4977387;28;20455;-73
2021/12/09 15:20:34;;;;;;;9.47;5.40;;;6.20;99.90;;;;;;4977016;28;20997;-73
2021/12/09 15:23:10;;;;;;;13.73;5.60;;;6.10;99.90;;;;;;4977426;28;20443;-73
2021/12/09 15:25:39;;;;;;;13.03;7.03;;;6.00;99.90;;;;;;4977199;28;20805;-73
2021/12/09 15:28:15;;;;;;;11.70;6.40;;;5.90;99.90;;;;;;4977187;28;20459;-73
2021/12/09 15:30:48;;;;;;;10.33;6.70;;;5.80;99.90;;;;;;4977624;28;20529;-74
2021/12/09 15:33:20;;;;;;;12.10;6.70;;;5.80;99.90;;;;;;4977305;28;20817;-73
2021/12/09 15:35:59;;;;;;;13.00;6.87;;;5.70;99.90;;;;;;4977339;28;20446;-75
2021/12/09 15:38:28;;;;;;;15.17;6.40;;;5.70;99.90;;;;;;4977744;28;20439;-74
2021/12/09 15:40:55;;;;;;;12.80;6.40;;;5.60;99.90;;;;;;4977849;28;20490;-76
2021/12/09 15:43:24;;;;;;;11.53;7.80;;;5.50;99.90;;;;;;4977722;28;20466;-75
2021/12/09 15:45:58;;;;;;;15.30;8.63;;;5.40;99.90;;;;;;4977549;28;20927;-75
2021/12/09 15:48:31;;;;;;;18.60;7.93;;;5.40;99.90;;;;;;4977908;28;20937;-74
2021/12/09 15:51:02;;;;;;;13.03;8.20;;;5.30;99.90;;;;;;4977611;28;20494;-73
2021/12/09 15:53:35;;;;;;;15.33;9.23;;;5.30;99.90;;;;;;4977186;28;20534;-74
2021/12/09 15:56:03;;;;;;;21.77;8.00;;;5.20;99.90;;;;;;4977538;28;20440;-74
2021/12/09 15:58:30;;;;;;;14.47;6.90;;;5.20;99.90;;;;;;4977080;28;20965;-73
2021/12/09 16:00:58;;;;;;;14.07;7.73;;;5.10;99.90;;;;;;4975729;28;21017;-73
2021/12/09 16:03:24;;;;;;;13.53;7.87;;;5.00;99.90;;;;;;4976716;28;21000;-73
2021/12/09 16:05:51;;;;;;;14.07;8.00;;;5.00;99.90;;;;;;4976368;28;20455;-74
2021/12/09 16:08:18;;;;;;;17.53;7.50;;;4.90;99.90;;;;;;4975538;28;20482;-73
2021/12/09 16:10:48;;;;;;;18.57;7.10;;;4.90;99.90;;;;;;4976142;28;20475;-73
2021/12/09 16:13:15;;;;;;;13.77;7.70;;;4.90;99.90;;;;;;4976231;28;20459;-72
2021/12/09 16:15:53;;;;;;;11.43;7.37;;;5.00;99.90;;;;;;4976201;28;20455;-72
2021/12/09 16:18:26;;;;;;;12.40;7.33;;;5.00;99.90;;;;;;4976064;28;20498;-73
2021/12/09 16:21:00;;;;;;;17.10;9.40;;;5.00;99.90;;;;;;4975955;28;21068;-73
2021/12/09 16:23:27;;;;;;;14.20;7.67;;;5.00;99.90;;;;;;4975897;28;20910;-74
2021/12/09 16:25:55;;;;;;;12.20;7.90;;;5.10;99.90;;;;;;4975800;28;20947;-73
2021/12/09 16:28:22;;;;;;;17.93;8.20;;;5.00;99.90;;;;;;4976037;28;20455;-73
2021/12/09 16:30:49;;;;;;;15.77;10.03;;;5.10;99.90;;;;;;4976301;28;20478;-74
2021/12/09 16:33:16;;;;;;;14.07;8.40;;;5.10;99.90;;;;;;4976386;28;20454;-73
2021/12/09 16:35:43;;;;;;;18.33;8.90;;;5.10;99.90;;;;;;4976204;28;20451;-73
2021/12/09 16:38:09;;;;;;;15.27;7.93;;;5.10;99.90;;;;;;4976697;28;20461;-74
2021/12/09 16:40:39;;;;;;;10.07;7.47;;;5.10;99.90;;;;;;4976158;28;20487;-73
2021/12/09 16:43:10;;;;;;;15.70;8.70;;;5.20;99.90;;;;;;4977519;28;20455;-74
2021/12/09 16:45:38;;;;;;;12.37;7.00;;;5.30;99.90;;;;;;4979347;28;20444;-74
2021/12/09 16:48:08;;;;;;;14.90;7.23;;;5.30;99.90;;;;;;4975952;28;20466;-74
2021/12/09 16:50:37;;;;;;;13.60;7.87;;;5.30;99.90;;;;;;4976164;28;20451;-74
2021/12/09 16:53:09;;;;;;;15.53;8.17;;;5.40;99.90;;;;;;4975291;28;20912;-74
2021/12/09 16:55:39;;;;;;;10.97;6.87;;;5.40;99.90;;;;;;4975590;28;20854;-74
2021/12/09 16:58:08;;;;;;;15.83;8.27;;;5.50;99.90;;;;;;4975719;28;20451;-74
2021/12/09 17:00:39;;;;;;;11.40;7.70;;;5.50;99.90;;;;;;4975509;28;20486;-74
2021/12/09 17:03:06;;;;;;;13.97;8.90;;;5.50;99.90;;;;;;4975670;28;20965;-73
2021/12/09 17:05:33;;;;;;;12.53;7.13;;;5.50;99.90;;;;;;4976018;28;20458;-73
2021/12/09 17:08:01;;;;;;;14.53;7.23;;;5.50;99.90;;;;;;4975797;28;20463;-72
2021/12/09 17:10:30;;;;;;;14.70;7.03;;;5.50;99.90;;;;;;4975269;28;20456;-73
2021/12/09 17:12:58;;;;;;;12.30;6.97;;;5.50;99.90;;;;;;4975554;28;20473;-73
2021/12/09 17:15:28;;;;;;;11.50;5.23;;;5.40;99.90;;;;;;4975010;28;20495;-72
2021/12/09 17:17:56;;;;;;;10.23;5.73;;;5.40;99.90;;;;;;4975409;28;20467;-72
2021/12/09 17:20:26;;;;;;;9.30;5.13;;;5.40;99.90;;;;;;4975329;28;20483;-72
2021/12/09 17:22:54;;;;;;;19.47;4.50;;;5.40;99.90;;;;;;4975272;28;20462;-73
2021/12/09 17:25:23;;;;;;;13.77;5.07;;;5.40;99.90;;;;;;4975136;28;20943;-69
2021/12/09 17:27:52;;;;;;;10.37;4.13;;;5.50;99.90;;;;;;4975216;28;20466;-72
2021/12/09 17:30:19;;;;;;;7.83;4.20;;;5.50;99.90;;;;;;4977617;28;20481;-72
2021/12/09 17:32:50;;;;;;;8.80;3.80;;;5.60;99.90;;;;;;4978431;28;20455;-72
2021/12/09 17:35:17;;;;;;;9.70;3.50;;;5.60;99.90;;;;;;4977836;28;20462;-73
2021/12/09 17:37:46;;;;;;;7.17;3.60;;;5.60;99.90;;;;;;4979024;28;20830;-72
2021/12/09 17:40:15;;;;;;;10.50;4.00;;;5.70;99.90;;;;;;4976669;28;20467;-73
2021/12/09 17:42:42;;;;;;;8.97;5.57;;;5.70;99.90;;;;;;4975793;28;20454;-73
2021/12/09 17:45:14;;;;;;;11.50;4.70;;;5.70;99.90;;;;;;4976219;28;20436;-75
2021/12/09 17:47:41;;;;;;;8.30;3.73;;;5.60;99.90;;;;;;4975856;28;20543;-74
2021/12/09 17:50:09;;;;;;;9.63;3.90;;;5.50;99.90;;;;;;4975376;28;20455;-73
2021/12/09 17:52:42;;;;;;;7.03;3.50;;;5.50;99.90;;;;;;4975772;28;20522;-74
2021/12/09 17:55:10;;;;;;;8.43;3.83;;;5.50;99.90;;;;;;4975712;28;20826;-73
2021/12/09 17:57:36;;;;;;;4.97;3.50;;;5.50;99.90;;;;;;4975224;28;20455;-72
2021/12/09 18:00:07;;;;;;;11.70;5.47;;;5.40;99.90;;;;;;4974833;28;20463;-69
2021/12/09 18:02:34;;;;;;;5.33;3.20;;;5.30;99.90;;;;;;4974958;28;20486;-76
2021/12/09 18:05:01;;;;;;;5.23;3.30;;;5.40;99.90;;;;;;4975567;28;20483;-73
2021/12/09 18:07:29;;;;;;;7.10;3.63;;;5.40;99.90;;;;;;4975364;28;20491;-73
2021/12/09 18:09:56;;;;;;;17.93;3.60;;;5.30;99.90;;;;;;4975683;28;20942;-71
2021/12/09 18:12:25;;;;;;;18.07;5.27;;;5.30;99.90;;;;;;4974929;28;20474;-71
2021/12/09 18:14:51;;;;;;;8.30;4.70;;;5.40;99.90;;;;;;4976297;28;20549;-73
2021/12/09 18:17:21;;;;;;;5.50;3.40;;;5.30;99.90;;;;;;4984934;28;20946;-72
2021/12/09 18:19:48;;;;;;;11.30;3.63;;;5.30;99.90;;;;;;4975637;28;21000;-74
2021/12/09 18:22:16;;;;;;;5.80;3.00;;;5.10;99.90;;;;;;4975662;28;20483;-74
2021/12/09 18:24:44;;;;;;;9.47;3.40;;;5.10;99.90;;;;;;4975291;28;20455;-72
2021/12/09 18:27:11;;;;;;;5.27;2.77;;;5.10;99.90;;;;;;4975879;28;20459;-73
2021/12/09 18:29:38;;;;;;;3.30;2.90;;;5.20;99.90;;;;;;4975950;28;20463;-78
2021/12/09 18:32:07;;;;;;;5.63;3.10;;;5.20;99.90;;;;;;4979327;28;20479;-77
2021/12/09 18:34:35;;;;;;;9.97;3.43;;;5.10;99.90;;;;;;4981182;28;20466;-79
2021/12/09 18:37:02;;;;;;;9.77;3.00;;;4.90;99.90;;;;;;4981270;28;20499;-78
2021/12/09 18:39:31;;;;;;;8.00;3.00;;;4.90;99.90;;;;;;4982997;28;20550;-78
2021/12/09 18:41:59;;;;;;;11.00;3.60;;;4.90;99.90;;;;;;4982559;28;20483;-77
2021/12/09 18:44:26;;;;;;;4.10;2.50;;;4.90;99.90;;;;;;4981406;28;20451;-75
2021/12/09 18:46:53;;;;;;;12.60;3.53;;;4.90;99.90;;;;;;4982168;28;20456;-78
2021/12/09 18:49:21;;;;;;;6.67;2.73;;;4.90;99.90;;;;;;4984628;28;20459;-76